sensor_id;sensor_type;location;lat;lon;timestamp;P1;durP1;ratioP1;P2;durP2;ratioP2
20655;SDS011;10487;53.320;8.672;2023-01-28T00:02:46;0.20;;;0.20;;
20655;SDS011;10487;53.320;8.672;2023-01-28T00:05:48;0.20;;;0.20;;
20655;SDS011;10487;53.320;8.672;2023-01-28T00:08:50;0.20;;;0.20;;
20655;SDS011;10487;53.320;8.672;2023-01-28T00:11:51;0.20;;;0.20;;
20655;SDS011;10487;53.320;8.672;2023-01-28T00:14:53;0.20;;;0.20;;
20655;SDS011;10487;53.320;8.672;2023-01-28T00:17:55;0.10;;;0.10;;
20655;SDS011;10487;53.320;8.672;2023-01-28T00:24:08;0.20;;;0.20;;
20655;SDS011;10487;53.320;8.672;2023-01-28T00:27:10;0.20;;;0.20;;
20655;SDS011;10487;53.320;8.672;2023-01-28T00:30:12;0.20;;;0.20;;
20655;SDS011;10487;53.320;8.672;2023-01-28T00:33:14;0.20;;;0.20;;
20655;SDS011;10487;53.320;8.672;2023-01-28T00:36:16;0.20;;;0.20;;
20655;SDS011;10487;53.320;8.672;2023-01-28T00:39:19;0.20;;;0.20;;
20655;SDS011;10487;53.320;8.672;2023-01-28T00:42:20;0.20;;;0.20;;
20655;SDS011;10487;53.320;8.672;2023-01-28T00:45:22;0.20;;;0.20;;
20655;SDS011;10487;53.320;8.672;2023-01-28T00:48:23;0.30;;;0.30;;
20655;SDS011;10487;53.320;8.672;2023-01-28T00:51:25;0.20;;;0.20;;
20655;SDS011;10487;53.320;8.672;2023-01-28T00:54:26;0.20;;;0.20;;
20655;SDS011;10487;53.320;8.672;2023-01-28T00:57:28;0.20;;;0.20;;
20655;SDS011;10487;53.320;8.672;2023-01-28T01:00:30;0.20;;;0.20;;
20655;SDS011;10487;53.320;8.672;2023-01-28T01:03:31;0.20;;;0.20;;
20655;SDS011;10487;53.320;8.672;2023-01-28T01:06:37;0.22;;;0.22;;
20655;SDS011;10487;53.320;8.672;2023-01-28T01:09:39;0.25;;;0.20;;
20655;SDS011;10487;53.320;8.672;2023-01-28T01:12:41;0.20;;;0.20;;
20655;SDS011;10487;53.320;8.672;2023-01-28T01:15:43;0.20;;;0.20;;
20655;SDS011;10487;53.320;8.672;2023-01-28T01:18:44;0.20;;;0.20;;
20655;SDS011;10487;53.320;8.672;2023-01-28T01:21:46;0.28;;;0.20;;
20655;SDS011;10487;53.320;8.672;2023-01-28T01:24:51;0.20;;;0.20;;
20655;SDS011;10487;53.320;8.672;2023-01-28T01:27:52;0.20;;;0.20;;
20655;SDS011;10487;53.320;8.672;2023-01-28T01:31:00;0.20;;;0.20;;
20655;SDS011;10487;53.320;8.672;2023-01-28T01:34:07;0.98;;;0.20;;
20655;SDS011;10487;53.320;8.672;2023-01-28T01:37:09;0.20;;;0.20;;
20655;SDS011;10487;53.320;8.672;2023-01-28T01:40:11;0.20;;;0.20;;
20655;SDS011;10487;53.320;8.672;2023-01-28T01:43:17;0.20;;;0.20;;
20655;SDS011;10487;53.320;8.672;2023-01-28T01:46:25;0.22;;;0.20;;
20655;SDS011;10487;53.320;8.672;2023-01-28T01:49:29;0.10;;;0.10;;
20655;SDS011;10487;53.320;8.672;2023-01-28T01:52:31;0.20;;;0.20;;
20655;SDS011;10487;53.320;8.672;2023-01-28T01:55:35;0.20;;;0.20;;
20655;SDS011;10487;53.320;8.672;2023-01-28T01:58:41;0.20;;;0.20;;
20655;SDS011;10487;53.320;8.672;2023-01-28T02:01:46;0.20;;;0.20;;
20655;SDS011;10487;53.320;8.672;2023-01-28T02:04:48;0.38;;;0.20;;
20655;SDS011;10487;53.320;8.672;2023-01-28T02:07:53;0.20;;;0.20;;
20655;SDS011;10487;53.320;8.672;2023-01-28T02:11:17;0.20;;;0.20;;
20655;SDS011;10487;53.320;8.672;2023-01-28T02:14:19;0.20;;;0.20;;
20655;SDS011;10487;53.320;8.672;2023-01-28T02:17:31;0.20;;;0.20;;
20655;SDS011;10487;53.320;8.672;2023-01-28T02:30:24;0.20;;;0.20;;
20655;SDS011;10487;53.320;8.672;2023-01-28T02:40:05;0.20;;;0.20;;
20655;SDS011;10487;53.320;8.672;2023-01-28T02:43:11;0.20;;;0.20;;
20655;SDS011;10487;53.320;8.672;2023-01-28T02:53:16;0.20;;;0.20;;
20655;SDS011;10487;53.320;8.672;2023-01-28T02:56:59;0.20;;;0.20;;
20655;SDS011;10487;53.320;8.672;2023-01-28T03:00:27;0.20;;;0.20;;
20655;SDS011;10487;53.320;8.672;2023-01-28T03:04:02;0.20;;;0.20;;
20655;SDS011;10487;53.320;8.672;2023-01-28T03:07:08;0.20;;;0.20;;
20655;SDS011;10487;53.320;8.672;2023-01-28T03:10:13;0.20;;;0.20;;
20655;SDS011;10487;53.320;8.672;2023-01-28T03:13:18;0.20;;;0.20;;
20655;SDS011;10487;53.320;8.672;2023-01-28T03:16:38;0.20;;;0.20;;
20655;SDS011;10487;53.320;8.672;2023-01-28T03:19:59;0.20;;;0.20;;
20655;SDS011;10487;53.320;8.672;2023-01-28T03:23:21;0.20;;;0.20;;
20655;SDS011;10487;53.320;8.672;2023-01-28T03:26:49;0.20;;;0.20;;
20655;SDS011;10487;53.320;8.672;2023-01-28T03:30:18;0.20;;;0.20;;
20655;SDS011;10487;53.320;8.672;2023-01-28T03:33:42;0.20;;;0.20;;
20655;SDS011;10487;53.320;8.672;2023-01-28T03:37:03;0.20;;;0.20;;
20655;SDS011;10487;53.320;8.672;2023-01-28T03:40:06;0.20;;;0.20;;
20655;SDS011;10487;53.320;8.672;2023-01-28T03:43:08;0.20;;;0.20;;
20655;SDS011;10487;53.320;8.672;2023-01-28T03:46:10;0.20;;;0.20;;
20655;SDS011;10487;53.320;8.672;2023-01-28T03:49:11;0.20;;;0.20;;
20655;SDS011;10487;53.320;8.672;2023-01-28T03:52:13;0.20;;;0.20;;
20655;SDS011;10487;53.320;8.672;2023-01-28T03:55:19;0.20;;;0.20;;
20655;SDS011;10487;53.320;8.672;2023-01-28T03:58:21;0.20;;;0.20;;
20655;SDS011;10487;53.320;8.672;2023-01-28T04:01:27;0.20;;;0.20;;
20655;SDS011;10487;53.320;8.672;2023-01-28T04:04:29;0.20;;;0.20;;
20655;SDS011;10487;53.320;8.672;2023-01-28T04:07:32;0.30;;;0.30;;
20655;SDS011;10487;53.320;8.672;2023-01-28T04:10:34;0.20;;;0.20;;
20655;SDS011;10487;53.320;8.672;2023-01-28T04:13:36;0.28;;;0.28;;
20655;SDS011;10487;53.320;8.672;2023-01-28T04:16:37;0.20;;;0.20;;
20655;SDS011;10487;53.320;8.672;2023-01-28T04:19:39;0.20;;;0.20;;
20655;SDS011;10487;53.320;8.672;2023-01-28T04:22:41;0.22;;;0.20;;
20655;SDS011;10487;53.320;8.672;2023-01-28T04:25:43;0.20;;;0.20;;
20655;SDS011;10487;53.320;8.672;2023-01-28T04:28:45;0.20;;;0.20;;
20655;SDS011;10487;53.320;8.672;2023-01-28T04:31:46;0.20;;;0.20;;
20655;SDS011;10487;53.320;8.672;2023-01-28T04:34:48;0.20;;;0.20;;
20655;SDS011;10487;53.320;8.672;2023-01-28T04:37:49;0.20;;;0.20;;
20655;SDS011;10487;53.320;8.672;2023-01-28T04:40:51;0.20;;;0.20;;
20655;SDS011;10487;53.320;8.672;2023-01-28T04:43:53;0.20;;;0.20;;
20655;SDS011;10487;53.320;8.672;2023-01-28T04:46:56;0.20;;;0.20;;
20655;SDS011;10487;53.320;8.672;2023-01-28T04:49:57;0.35;;;0.20;;
20655;SDS011;10487;53.320;8.672;2023-01-28T04:52:59;0.20;;;0.20;;
20655;SDS011;10487;53.320;8.672;2023-01-28T04:56:00;0.20;;;0.20;;
20655;SDS011;10487;53.320;8.672;2023-01-28T04:59:02;0.20;;;0.20;;
20655;SDS011;10487;53.320;8.672;2023-01-28T05:02:04;0.20;;;0.20;;
20655;SDS011;10487;53.320;8.672;2023-01-28T05:05:05;0.20;;;0.20;;
20655;SDS011;10487;53.320;8.672;2023-01-28T05:08:09;0.20;;;0.20;;
20655;SDS011;10487;53.320;8.672;2023-01-28T05:11:11;0.20;;;0.20;;
20655;SDS011;10487;53.320;8.672;2023-01-28T05:14:13;0.20;;;0.20;;
20655;SDS011;10487;53.320;8.672;2023-01-28T05:17:15;0.20;;;0.20;;
20655;SDS011;10487;53.320;8.672;2023-01-28T05:20:16;0.10;;;0.10;;
20655;SDS011;10487;53.320;8.672;2023-01-28T05:23:18;0.20;;;0.20;;
20655;SDS011;10487;53.320;8.672;2023-01-28T05:26:20;0.20;;;0.20;;
20655;SDS011;10487;53.320;8.672;2023-01-28T05:29:21;0.20;;;0.20;;
20655;SDS011;10487;53.320;8.672;2023-01-28T05:32:23;0.20;;;0.20;;
20655;SDS011;10487;53.320;8.672;2023-01-28T05:35:25;0.20;;;0.20;;
20655;SDS011;10487;53.320;8.672;2023-01-28T05:38:27;0.20;;;0.20;;
20655;SDS011;10487;53.320;8.672;2023-01-28T05:41:28;0.25;;;0.25;;
20655;SDS011;10487;53.320;8.672;2023-01-28T05:44:30;0.20;;;0.20;;
20655;SDS011;10487;53.320;8.672;2023-01-28T05:47:32;0.30;;;0.30;;
20655;SDS011;10487;53.320;8.672;2023-01-28T05:50:34;0.30;;;0.30;;
20655;SDS011;10487;53.320;8.672;2023-01-28T05:53:36;0.28;;;0.28;;
20655;SDS011;10487;53.320;8.672;2023-01-28T05:56:37;0.20;;;0.20;;
20655;SDS011;10487;53.320;8.672;2023-01-28T05:59:40;0.25;;;0.25;;
20655;SDS011;10487;53.320;8.672;2023-01-28T06:02:42;0.20;;;0.20;;
20655;SDS011;10487;53.320;8.672;2023-01-28T06:05:44;0.20;;;0.20;;
20655;SDS011;10487;53.320;8.672;2023-01-28T06:08:45;0.20;;;0.20;;
20655;SDS011;10487;53.320;8.672;2023-01-28T06:11:47;0.20;;;0.20;;
20655;SDS011;10487;53.320;8.672;2023-01-28T06:14:50;0.20;;;0.20;;
20655;SDS011;10487;53.320;8.672;2023-01-28T06:17:52;0.20;;;0.20;;
20655;SDS011;10487;53.320;8.672;2023-01-28T06:20:53;0.20;;;0.20;;
20655;SDS011;10487;53.320;8.672;2023-01-28T06:23:55;0.20;;;0.20;;
20655;SDS011;10487;53.320;8.672;2023-01-28T06:26:56;0.20;;;0.20;;
20655;SDS011;10487;53.320;8.672;2023-01-28T06:29:58;0.20;;;0.20;;
20655;SDS011;10487;53.320;8.672;2023-01-28T06:33:00;0.20;;;0.20;;
20655;SDS011;10487;53.320;8.672;2023-01-28T06:36:02;0.20;;;0.20;;
20655;SDS011;10487;53.320;8.672;2023-01-28T06:39:04;0.20;;;0.20;;
20655;SDS011;10487;53.320;8.672;2023-01-28T06:42:06;0.20;;;0.20;;
20655;SDS011;10487;53.320;8.672;2023-01-28T06:45:08;0.20;;;0.20;;
20655;SDS011;10487;53.320;8.672;2023-01-28T06:48:09;0.20;;;0.20;;
20655;SDS011;10487;53.320;8.672;2023-01-28T06:51:11;0.20;;;0.20;;
20655;SDS011;10487;53.320;8.672;2023-01-28T06:54:12;0.30;;;0.30;;
20655;SDS011;10487;53.320;8.672;2023-01-28T06:57:14;0.20;;;0.20;;
20655;SDS011;10487;53.320;8.672;2023-01-28T07:00:16;0.28;;;0.28;;
20655;SDS011;10487;53.320;8.672;2023-01-28T07:03:19;0.50;;;0.50;;
20655;SDS011;10487;53.320;8.672;2023-01-28T07:06:20;0.30;;;0.30;;
20655;SDS011;10487;53.320;8.672;2023-01-28T07:09:22;0.20;;;0.20;;
20655;SDS011;10487;53.320;8.672;2023-01-28T07:12:23;0.22;;;0.22;;
20655;SDS011;10487;53.320;8.672;2023-01-28T07:15:25;0.25;;;0.25;;
20655;SDS011;10487;53.320;8.672;2023-01-28T07:18:27;0.20;;;0.20;;
20655;SDS011;10487;53.320;8.672;2023-01-28T07:21:29;0.30;;;0.30;;
20655;SDS011;10487;53.320;8.672;2023-01-28T07:24:31;0.25;;;0.25;;
20655;SDS011;10487;53.320;8.672;2023-01-28T07:27:33;0.22;;;0.22;;
20655;SDS011;10487;53.320;8.672;2023-01-28T07:30:34;1.17;;;0.20;;
20655;SDS011;10487;53.320;8.672;2023-01-28T07:33:36;0.28;;;0.28;;
20655;SDS011;10487;53.320;8.672;2023-01-28T07:36:37;0.20;;;0.20;;
20655;SDS011;10487;53.320;8.672;2023-01-28T07:39:39;0.30;;;0.30;;
20655;SDS011;10487;53.320;8.672;2023-01-28T07:42:40;0.20;;;0.20;;
20655;SDS011;10487;53.320;8.672;2023-01-28T07:45:42;0.20;;;0.20;;
20655;SDS011;10487;53.320;8.672;2023-01-28T07:48:44;0.20;;;0.20;;
20655;SDS011;10487;53.320;8.672;2023-01-28T07:51:45;0.20;;;0.20;;
20655;SDS011;10487;53.320;8.672;2023-01-28T07:54:49;0.20;;;0.20;;
20655;SDS011;10487;53.320;8.672;2023-01-28T07:57:55;0.20;;;0.20;;
20655;SDS011;10487;53.320;8.672;2023-01-28T08:00:58;0.20;;;0.20;;
20655;SDS011;10487;53.320;8.672;2023-01-28T08:04:01;0.20;;;0.20;;
20655;SDS011;10487;53.320;8.672;2023-01-28T08:07:02;0.30;;;0.30;;
20655;SDS011;10487;53.320;8.672;2023-01-28T08:10:08;0.28;;;0.28;;
20655;SDS011;10487;53.320;8.672;2023-01-28T08:13:11;0.22;;;0.22;;
20655;SDS011;10487;53.320;8.672;2023-01-28T08:16:14;0.10;;;0.10;;
20655;SDS011;10487;53.320;8.672;2023-01-28T08:19:15;0.30;;;0.30;;
20655;SDS011;10487;53.320;8.672;2023-01-28T08:22:22;0.20;;;0.20;;
20655;SDS011;10487;53.320;8.672;2023-01-28T08:25:25;0.20;;;0.20;;
20655;SDS011;10487;53.320;8.672;2023-01-28T08:28:27;0.20;;;0.20;;
20655;SDS011;10487;53.320;8.672;2023-01-28T08:31:28;0.20;;;0.20;;
20655;SDS011;10487;53.320;8.672;2023-01-28T08:34:30;0.20;;;0.20;;
20655;SDS011;10487;53.320;8.672;2023-01-28T08:37:31;0.50;;;0.20;;
20655;SDS011;10487;53.320;8.672;2023-01-28T08:40:33;0.20;;;0.20;;
20655;SDS011;10487;53.320;8.672;2023-01-28T08:43:35;0.20;;;0.20;;
20655;SDS011;10487;53.320;8.672;2023-01-28T08:46:37;0.20;;;0.20;;
20655;SDS011;10487;53.320;8.672;2023-01-28T08:49:38;0.20;;;0.20;;
20655;SDS011;10487;53.320;8.672;2023-01-28T08:52:40;0.20;;;0.20;;
20655;SDS011;10487;53.320;8.672;2023-01-28T08:55:44;0.20;;;0.20;;
20655;SDS011;10487;53.320;8.672;2023-01-28T08:58:46;0.20;;;0.20;;
20655;SDS011;10487;53.320;8.672;2023-01-28T09:01:48;0.20;;;0.20;;
20655;SDS011;10487;53.320;8.672;2023-01-28T09:04:50;0.30;;;0.30;;
20655;SDS011;10487;53.320;8.672;2023-01-28T09:07:51;0.40;;;0.40;;
20655;SDS011;10487;53.320;8.672;2023-01-28T09:10:53;0.32;;;0.32;;
20655;SDS011;10487;53.320;8.672;2023-01-28T09:13:56;0.30;;;0.30;;
20655;SDS011;10487;53.320;8.672;2023-01-28T09:17:00;0.30;;;0.30;;
20655;SDS011;10487;53.320;8.672;2023-01-28T09:20:01;0.32;;;0.32;;
20655;SDS011;10487;53.320;8.672;2023-01-28T09:23:05;0.30;;;0.30;;
20655;SDS011;10487;53.320;8.672;2023-01-28T09:26:07;0.30;;;0.30;;
20655;SDS011;10487;53.320;8.672;2023-01-28T09:29:09;0.40;;;0.40;;
20655;SDS011;10487;53.320;8.672;2023-01-28T09:32:11;0.40;;;0.40;;
20655;SDS011;10487;53.320;8.672;2023-01-28T09:35:12;0.30;;;0.30;;
20655;SDS011;10487;53.320;8.672;2023-01-28T09:38:15;0.50;;;0.50;;
20655;SDS011;10487;53.320;8.672;2023-01-28T09:41:21;0.30;;;0.30;;
20655;SDS011;10487;53.320;8.672;2023-01-28T09:45:09;0.30;;;0.30;;
20655;SDS011;10487;53.320;8.672;2023-01-28T09:47:59;0.30;;;0.30;;
20655;SDS011;10487;53.320;8.672;2023-01-28T09:51:07;0.30;;;0.30;;
20655;SDS011;10487;53.320;8.672;2023-01-28T09:54:18;0.32;;;0.30;;
20655;SDS011;10487;53.320;8.672;2023-01-28T09:57:23;0.40;;;0.40;;
20655;SDS011;10487;53.320;8.672;2023-01-28T10:00:34;0.43;;;0.43;;
20655;SDS011;10487;53.320;8.672;2023-01-28T10:03:58;0.40;;;0.40;;
20655;SDS011;10487;53.320;8.672;2023-01-28T10:10:26;0.50;;;0.30;;
20655;SDS011;10487;53.320;8.672;2023-01-28T10:17:09;0.80;;;0.50;;
20655;SDS011;10487;53.320;8.672;2023-01-28T10:20:30;0.52;;;0.52;;
20655;SDS011;10487;53.320;8.672;2023-01-28T10:23:54;0.50;;;0.40;;
20655;SDS011;10487;53.320;8.672;2023-01-28T10:26:58;0.45;;;0.40;;
20655;SDS011;10487;53.320;8.672;2023-01-28T10:30:22;0.50;;;0.50;;
20655;SDS011;10487;53.320;8.672;2023-01-28T10:33:35;0.40;;;0.40;;
20655;SDS011;10487;53.320;8.672;2023-01-28T10:36:40;0.88;;;0.70;;
20655;SDS011;10487;53.320;8.672;2023-01-28T10:39:42;0.90;;;0.90;;
20655;SDS011;10487;53.320;8.672;2023-01-28T10:42:45;0.50;;;0.50;;
20655;SDS011;10487;53.320;8.672;2023-01-28T10:46:04;0.40;;;0.40;;
20655;SDS011;10487;53.320;8.672;2023-01-28T10:52:15;0.43;;;0.40;;
20655;SDS011;10487;53.320;8.672;2023-01-28T10:55:18;0.63;;;0.38;;
20655;SDS011;10487;53.320;8.672;2023-01-28T10:58:21;0.30;;;0.30;;
20655;SDS011;10487;53.320;8.672;2023-01-28T11:01:37;0.30;;;0.30;;
20655;SDS011;10487;53.320;8.672;2023-01-28T11:04:39;0.30;;;0.30;;
20655;SDS011;10487;53.320;8.672;2023-01-28T11:07:40;0.38;;;0.38;;
20655;SDS011;10487;53.320;8.672;2023-01-28T11:10:42;1.55;;;1.02;;
20655;SDS011;10487;53.320;8.672;2023-01-28T11:13:48;0.70;;;0.60;;
20655;SDS011;10487;53.320;8.672;2023-01-28T11:16:53;0.68;;;0.60;;
20655;SDS011;10487;53.320;8.672;2023-01-28T11:20:00;0.43;;;0.43;;
20655;SDS011;10487;53.320;8.672;2023-01-28T11:23:18;0.38;;;0.38;;
20655;SDS011;10487;53.320;8.672;2023-01-28T11:26:26;0.30;;;0.30;;
20655;SDS011;10487;53.320;8.672;2023-01-28T11:29:31;0.40;;;0.40;;
20655;SDS011;10487;53.320;8.672;2023-01-28T11:32:35;0.40;;;0.40;;
20655;SDS011;10487;53.320;8.672;2023-01-28T11:35:36;0.40;;;0.40;;
20655;SDS011;10487;53.320;8.672;2023-01-28T11:38:46;0.40;;;0.40;;
20655;SDS011;10487;53.320;8.672;2023-01-28T11:41:52;0.50;;;0.50;;
20655;SDS011;10487;53.320;8.672;2023-01-28T11:44:54;0.30;;;0.30;;
20655;SDS011;10487;53.320;8.672;2023-01-28T11:51:03;0.30;;;0.30;;
20655;SDS011;10487;53.320;8.672;2023-01-28T11:57:44;0.30;;;0.30;;
20655;SDS011;10487;53.320;8.672;2023-01-28T12:10:15;0.30;;;0.30;;
20655;SDS011;10487;53.320;8.672;2023-01-28T12:13:50;0.40;;;0.40;;
20655;SDS011;10487;53.320;8.672;2023-01-28T12:27:36;0.40;;;0.40;;
20655;SDS011;10487;53.320;8.672;2023-01-28T12:31:12;0.20;;;0.20;;
20655;SDS011;10487;53.320;8.672;2023-01-28T12:44:32;0.30;;;0.30;;
20655;SDS011;10487;53.320;8.672;2023-01-28T12:47:38;0.30;;;0.30;;
20655;SDS011;10487;53.320;8.672;2023-01-28T12:50:47;0.50;;;0.50;;
20655;SDS011;10487;53.320;8.672;2023-01-28T12:56:59;0.30;;;0.30;;
20655;SDS011;10487;53.320;8.672;2023-01-28T13:06:49;0.30;;;0.30;;
20655;SDS011;10487;53.320;8.672;2023-01-28T13:16:36;0.20;;;0.20;;
20655;SDS011;10487;53.320;8.672;2023-01-28T13:19:39;0.30;;;0.30;;
20655;SDS011;10487;53.320;8.672;2023-01-28T13:22:42;0.50;;;0.50;;
20655;SDS011;10487;53.320;8.672;2023-01-28T13:25:50;0.30;;;0.30;;
20655;SDS011;10487;53.320;8.672;2023-01-28T13:28:53;0.30;;;0.30;;
20655;SDS011;10487;53.320;8.672;2023-01-28T13:32:26;0.40;;;0.40;;
20655;SDS011;10487;53.320;8.672;2023-01-28T13:35:38;0.40;;;0.40;;
20655;SDS011;10487;53.320;8.672;2023-01-28T13:38:41;0.60;;;0.40;;
20655;SDS011;10487;53.320;8.672;2023-01-28T13:41:44;0.30;;;0.30;;
20655;SDS011;10487;53.320;8.672;2023-01-28T13:44:47;0.25;;;0.25;;
20655;SDS011;10487;53.320;8.672;2023-01-28T13:47:54;0.30;;;0.30;;
20655;SDS011;10487;53.320;8.672;2023-01-28T13:51:01;0.35;;;0.35;;
20655;SDS011;10487;53.320;8.672;2023-01-28T13:54:11;0.38;;;0.38;;
20655;SDS011;10487;53.320;8.672;2023-01-28T14:00:28;0.20;;;0.20;;
20655;SDS011;10487;53.320;8.672;2023-01-28T14:17:46;0.40;;;0.30;;
20655;SDS011;10487;53.320;8.672;2023-01-28T14:20:49;0.30;;;0.30;;
20655;SDS011;10487;53.320;8.672;2023-01-28T14:23:54;0.30;;;0.30;;
20655;SDS011;10487;53.320;8.672;2023-01-28T14:30:19;0.30;;;0.30;;
20655;SDS011;10487;53.320;8.672;2023-01-28T14:33:26;0.30;;;0.30;;
20655;SDS011;10487;53.320;8.672;2023-01-28T14:36:28;0.30;;;0.30;;
20655;SDS011;10487;53.320;8.672;2023-01-28T14:39:52;0.40;;;0.40;;
20655;SDS011;10487;53.320;8.672;2023-01-28T14:42:54;0.30;;;0.30;;
20655;SDS011;10487;53.320;8.672;2023-01-28T14:46:01;0.30;;;0.30;;
20655;SDS011;10487;53.320;8.672;2023-01-28T14:57:18;0.38;;;0.38;;
20655;SDS011;10487;53.320;8.672;2023-01-28T15:00:01;0.20;;;0.20;;
20655;SDS011;10487;53.320;8.672;2023-01-28T15:03:17;0.30;;;0.30;;
20655;SDS011;10487;53.320;8.672;2023-01-28T15:06:32;0.40;;;0.40;;
20655;SDS011;10487;53.320;8.672;2023-01-28T15:09:35;0.90;;;0.40;;
20655;SDS011;10487;53.320;8.672;2023-01-28T15:12:37;0.20;;;0.20;;
20655;SDS011;10487;53.320;8.672;2023-01-28T15:15:41;0.30;;;0.30;;
20655;SDS011;10487;53.320;8.672;2023-01-28T15:18:47;0.30;;;0.30;;
20655;SDS011;10487;53.320;8.672;2023-01-28T15:21:52;0.30;;;0.30;;
20655;SDS011;10487;53.320;8.672;2023-01-28T15:24:57;0.30;;;0.30;;
20655;SDS011;10487;53.320;8.672;2023-01-28T15:27:59;0.28;;;0.28;;
20655;SDS011;10487;53.320;8.672;2023-01-28T15:31:02;0.30;;;0.30;;
20655;SDS011;10487;53.320;8.672;2023-01-28T15:34:14;0.20;;;0.20;;
20655;SDS011;10487;53.320;8.672;2023-01-28T15:37:17;0.20;;;0.20;;
20655;SDS011;10487;53.320;8.672;2023-01-28T15:40:20;0.20;;;0.20;;
20655;SDS011;10487;53.320;8.672;2023-01-28T15:43:26;0.30;;;0.30;;
20655;SDS011;10487;53.320;8.672;2023-01-28T15:46:30;0.28;;;0.28;;
20655;SDS011;10487;53.320;8.672;2023-01-28T15:49:35;0.30;;;0.30;;
20655;SDS011;10487;53.320;8.672;2023-01-28T15:52:41;0.30;;;0.30;;
20655;SDS011;10487;53.320;8.672;2023-01-28T15:55:45;0.30;;;0.30;;
20655;SDS011;10487;53.320;8.672;2023-01-28T15:58:47;0.30;;;0.30;;
20655;SDS011;10487;53.320;8.672;2023-01-28T16:01:48;0.50;;;0.40;;
20655;SDS011;10487;53.320;8.672;2023-01-28T16:05:00;0.30;;;0.30;;
20655;SDS011;10487;53.320;8.672;2023-01-28T16:08:20;0.30;;;0.30;;
20655;SDS011;10487;53.320;8.672;2023-01-28T16:11:29;0.30;;;0.30;;
20655;SDS011;10487;53.320;8.672;2023-01-28T16:14:38;0.40;;;0.40;;
20655;SDS011;10487;53.320;8.672;2023-01-28T16:17:45;0.40;;;0.40;;
20655;SDS011;10487;53.320;8.672;2023-01-28T16:20:49;0.30;;;0.30;;
20655;SDS011;10487;53.320;8.672;2023-01-28T16:23:52;0.30;;;0.30;;
20655;SDS011;10487;53.320;8.672;2023-01-28T16:30:07;0.30;;;0.30;;
20655;SDS011;10487;53.320;8.672;2023-01-28T16:33:18;0.45;;;0.40;;
20655;SDS011;10487;53.320;8.672;2023-01-28T16:36:20;0.75;;;0.65;;
20655;SDS011;10487;53.320;8.672;2023-01-28T16:39:22;0.73;;;0.45;;
20655;SDS011;10487;53.320;8.672;2023-01-28T16:42:23;0.40;;;0.38;;
20655;SDS011;10487;53.320;8.672;2023-01-28T16:45:25;0.40;;;0.40;;
20655;SDS011;10487;53.320;8.672;2023-01-28T16:48:27;0.82;;;0.40;;
20655;SDS011;10487;53.320;8.672;2023-01-28T16:51:30;0.40;;;0.40;;
20655;SDS011;10487;53.320;8.672;2023-01-28T16:54:32;0.30;;;0.30;;
20655;SDS011;10487;53.320;8.672;2023-01-28T16:57:34;0.30;;;0.30;;
20655;SDS011;10487;53.320;8.672;2023-01-28T17:00:38;0.40;;;0.40;;
20655;SDS011;10487;53.320;8.672;2023-01-28T17:03:40;0.35;;;0.35;;
20655;SDS011;10487;53.320;8.672;2023-01-28T17:06:42;0.43;;;0.38;;
20655;SDS011;10487;53.320;8.672;2023-01-28T17:09:45;0.40;;;0.40;;
20655;SDS011;10487;53.320;8.672;2023-01-28T17:12:47;0.38;;;0.38;;
20655;SDS011;10487;53.320;8.672;2023-01-28T17:15:49;0.30;;;0.30;;
20655;SDS011;10487;53.320;8.672;2023-01-28T17:18:51;0.35;;;0.35;;
20655;SDS011;10487;53.320;8.672;2023-01-28T17:21:53;0.20;;;0.20;;
20655;SDS011;10487;53.320;8.672;2023-01-28T17:24:55;0.30;;;0.30;;
20655;SDS011;10487;53.320;8.672;2023-01-28T17:27:56;0.22;;;0.22;;
20655;SDS011;10487;53.320;8.672;2023-01-28T17:30:58;0.30;;;0.30;;
20655;SDS011;10487;53.320;8.672;2023-01-28T17:34:00;0.30;;;0.30;;
20655;SDS011;10487;53.320;8.672;2023-01-28T17:37:02;0.30;;;0.30;;
20655;SDS011;10487;53.320;8.672;2023-01-28T17:40:04;0.28;;;0.28;;
20655;SDS011;10487;53.320;8.672;2023-01-28T17:43:06;0.30;;;0.30;;
20655;SDS011;10487;53.320;8.672;2023-01-28T17:46:11;0.25;;;0.25;;
20655;SDS011;10487;53.320;8.672;2023-01-28T17:49:15;0.73;;;0.30;;
20655;SDS011;10487;53.320;8.672;2023-01-28T17:52:16;0.30;;;0.30;;
20655;SDS011;10487;53.320;8.672;2023-01-28T17:55:18;0.30;;;0.30;;
20655;SDS011;10487;53.320;8.672;2023-01-28T17:58:19;0.28;;;0.28;;
20655;SDS011;10487;53.320;8.672;2023-01-28T18:01:21;0.40;;;0.30;;
20655;SDS011;10487;53.320;8.672;2023-01-28T18:04:25;0.55;;;0.25;;
20655;SDS011;10487;53.320;8.672;2023-01-28T18:07:26;0.30;;;0.30;;
20655;SDS011;10487;53.320;8.672;2023-01-28T18:10:28;0.30;;;0.30;;
20655;SDS011;10487;53.320;8.672;2023-01-28T18:13:30;0.30;;;0.30;;
20655;SDS011;10487;53.320;8.672;2023-01-28T18:16:31;0.30;;;0.30;;
20655;SDS011;10487;53.320;8.672;2023-01-28T18:19:33;0.40;;;0.40;;
20655;SDS011;10487;53.320;8.672;2023-01-28T18:22:35;0.32;;;0.32;;
20655;SDS011;10487;53.320;8.672;2023-01-28T18:25:37;0.40;;;0.30;;
20655;SDS011;10487;53.320;8.672;2023-01-28T18:28:38;0.30;;;0.30;;
20655;SDS011;10487;53.320;8.672;2023-01-28T18:31:40;0.30;;;0.30;;
20655;SDS011;10487;53.320;8.672;2023-01-28T18:34:41;0.30;;;0.30;;
20655;SDS011;10487;53.320;8.672;2023-01-28T18:37:43;0.40;;;0.40;;
20655;SDS011;10487;53.320;8.672;2023-01-28T18:40:44;0.30;;;0.30;;
20655;SDS011;10487;53.320;8.672;2023-01-28T18:43:46;0.28;;;0.25;;
20655;SDS011;10487;53.320;8.672;2023-01-28T18:46:48;0.45;;;0.40;;
20655;SDS011;10487;53.320;8.672;2023-01-28T18:49:51;0.30;;;0.30;;
20655;SDS011;10487;53.320;8.672;2023-01-28T18:52:52;0.40;;;0.30;;
20655;SDS011;10487;53.320;8.672;2023-01-28T18:55:54;0.30;;;0.30;;
20655;SDS011;10487;53.320;8.672;2023-01-28T18:58:56;0.30;;;0.30;;
20655;SDS011;10487;53.320;8.672;2023-01-28T19:02:02;0.40;;;0.40;;
20655;SDS011;10487;53.320;8.672;2023-01-28T19:05:03;0.35;;;0.30;;
20655;SDS011;10487;53.320;8.672;2023-01-28T19:08:05;0.20;;;0.20;;
20655;SDS011;10487;53.320;8.672;2023-01-28T19:11:09;0.20;;;0.20;;
20655;SDS011;10487;53.320;8.672;2023-01-28T19:14:12;0.30;;;0.30;;
20655;SDS011;10487;53.320;8.672;2023-01-28T19:17:14;0.22;;;0.22;;
20655;SDS011;10487;53.320;8.672;2023-01-28T19:20:16;0.30;;;0.30;;
20655;SDS011;10487;53.320;8.672;2023-01-28T19:23:18;0.20;;;0.20;;
20655;SDS011;10487;53.320;8.672;2023-01-28T19:26:20;0.20;;;0.20;;
20655;SDS011;10487;53.320;8.672;2023-01-28T19:29:22;0.30;;;0.30;;
20655;SDS011;10487;53.320;8.672;2023-01-28T19:32:25;0.20;;;0.20;;
20655;SDS011;10487;53.320;8.672;2023-01-28T19:35:28;0.30;;;0.30;;
20655;SDS011;10487;53.320;8.672;2023-01-28T19:38:29;0.40;;;0.40;;
20655;SDS011;10487;53.320;8.672;2023-01-28T19:41:31;0.30;;;0.30;;
20655;SDS011;10487;53.320;8.672;2023-01-28T19:44:33;0.30;;;0.30;;
20655;SDS011;10487;53.320;8.672;2023-01-28T19:47:34;0.30;;;0.30;;
20655;SDS011;10487;53.320;8.672;2023-01-28T19:50:36;0.30;;;0.30;;
20655;SDS011;10487;53.320;8.672;2023-01-28T19:53:38;0.30;;;0.30;;
20655;SDS011;10487;53.320;8.672;2023-01-28T19:56:40;0.20;;;0.20;;
20655;SDS011;10487;53.320;8.672;2023-01-28T19:59:42;0.40;;;0.40;;
20655;SDS011;10487;53.320;8.672;2023-01-28T20:02:43;0.30;;;0.30;;
20655;SDS011;10487;53.320;8.672;2023-01-28T20:05:49;0.20;;;0.20;;
20655;SDS011;10487;53.320;8.672;2023-01-28T20:08:52;0.20;;;0.20;;
20655;SDS011;10487;53.320;8.672;2023-01-28T20:11:54;0.40;;;0.40;;
20655;SDS011;10487;53.320;8.672;2023-01-28T20:14:56;0.40;;;0.40;;
20655;SDS011;10487;53.320;8.672;2023-01-28T20:17:58;0.25;;;0.25;;
20655;SDS011;10487;53.320;8.672;2023-01-28T20:21:00;0.30;;;0.20;;
20655;SDS011;10487;53.320;8.672;2023-01-28T20:24:02;0.20;;;0.20;;
20655;SDS011;10487;53.320;8.672;2023-01-28T20:27:05;0.20;;;0.20;;
20655;SDS011;10487;53.320;8.672;2023-01-28T20:30:07;0.30;;;0.30;;
20655;SDS011;10487;53.320;8.672;2023-01-28T20:33:09;0.30;;;0.30;;
20655;SDS011;10487;53.320;8.672;2023-01-28T20:36:11;0.30;;;0.30;;